Time;durP1;ratioP1;P1;durP2;ratioP2;P2;SDS_P1;SDS_P2;PMS_P1;PMS_P2;Temp;Humidity;BMP_temperature;BMP_pressure;BME280_temperature;BME280_humidity;BME280_pressure;Samples;Min_cycle;Max_cycle;Signal;HPM_P1;HPM_P2
2023/01/08 00:01:52;;;;;;;10.65;5.68;;;9.60;99.90;;;;;;4993213;28;20038;-65
2023/01/08 00:04:17;;;;;;;10.35;5.70;;;9.70;99.90;;;;;;4994232;28;20417;-63
2023/01/08 00:06:43;;;;;;;10.55;5.20;;;9.60;99.90;;;;;;4995065;28;20484;-64
2023/01/08 00:09:09;;;;;;;10.68;5.80;;;9.60;99.90;;;;;;5011251;28;20066;-63
2023/01/08 00:11:35;;;;;;;10.43;5.82;;;9.60;99.90;;;;;;5010353;28;20120;-64
2023/01/08 00:14:01;;;;;;;9.82;5.38;;;9.60;99.90;;;;;;5012014;28;20137;-65
2023/01/08 00:16:27;;;;;;;9.35;5.57;;;9.60;99.90;;;;;;5012416;28;20092;-64
2023/01/08 00:18:52;;;;;;;9.63;5.68;;;9.60;99.90;;;;;;4993028;28;20046;-65
2023/01/08 00:21:18;;;;;;;10.27;5.80;;;9.60;99.90;;;;;;4993527;28;20145;-64
2023/01/08 00:23:43;;;;;;;12.15;5.90;;;9.60;99.90;;;;;;5011371;28;20444;-64
2023/01/08 00:26:10;;;;;;;10.32;5.93;;;9.60;99.90;;;;;;5011486;28;20038;-64
2023/01/08 00:28:36;;;;;;;10.40;5.63;;;9.60;99.90;;;;;;5012445;28;20460;-64
2023/01/08 00:31:03;;;;;;;9.98;5.65;;;9.60;99.90;;;;;;4991934;28;20052;-64
2023/01/08 00:33:30;;;;;;;8.05;5.53;;;9.60;99.90;;;;;;5008599;28;20475;-64
2023/01/08 00:35:55;;;;;;;11.07;6.05;;;9.60;99.90;;;;;;5012503;28;20048;-64
2023/01/08 00:38:28;;;;;;;12.32;5.88;;;9.60;99.90;;;;;;4981721;28;20137;-64
2023/01/08 00:40:54;;;;;;;12.20;5.95;;;9.60;99.90;;;;;;5000041;28;20041;-64
2023/01/08 00:43:20;;;;;;;8.75;5.55;;;9.60;99.90;;;;;;4998295;28;20095;-63
2023/01/08 00:45:45;;;;;;;12.23;5.82;;;9.60;99.90;;;;;;4990916;28;20571;-66
2023/01/08 00:48:11;;;;;;;11.02;5.53;;;9.60;99.90;;;;;;4987807;28;20401;-64
2023/01/08 00:50:37;;;;;;;10.68;5.38;;;9.50;99.90;;;;;;5002611;28;20030;-64
2023/01/08 00:53:03;;;;;;;11.98;5.53;;;9.50;99.90;;;;;;4985912;28;20214;-63
2023/01/08 00:55:29;;;;;;;9.65;5.15;;;9.60;99.90;;;;;;4987289;28;20669;-64
2023/01/08 00:57:56;;;;;;;9.43;4.75;;;9.50;99.90;;;;;;4986588;28;20120;-64
2023/01/08 01:00:23;;;;;;;10.57;5.00;;;9.50;99.90;;;;;;4982832;28;20069;-64
2023/01/08 01:02:48;;;;;;;10.13;4.50;;;9.50;99.90;;;;;;5001221;28;20080;-65
2023/01/08 01:05:15;;;;;;;8.20;4.00;;;9.40;99.90;;;;;;4986180;28;20341;-64
2023/01/08 01:07:43;;;;;;;9.05;3.70;;;9.40;99.90;;;;;;4986124;28;20045;-64
2023/01/08 01:10:09;;;;;;;8.70;3.05;;;9.40;99.90;;;;;;4988430;28;20030;-64
2023/01/08 01:12:37;;;;;;;6.70;2.65;;;9.40;99.90;;;;;;5000060;28;20037;-65
2023/01/08 01:15:04;;;;;;;7.25;2.40;;;9.30;99.90;;;;;;4983674;28;20045;-63
2023/01/08 01:17:30;;;;;;;9.43;2.05;;;9.30;99.90;;;;;;4986356;28;20484;-65
2023/01/08 01:19:55;;;;;;;7.72;2.05;;;9.20;99.90;;;;;;4987366;28;20343;-64
2023/01/08 01:22:21;;;;;;;6.80;1.90;;;9.20;99.90;;;;;;4985981;28;20112;-65
2023/01/08 01:24:46;;;;;;;6.30;1.92;;;9.10;99.90;;;;;;4987367;28;20046;-64
2023/01/08 01:27:12;;;;;;;10.00;2.08;;;9.10;99.90;;;;;;4985844;28;20049;-62
2023/01/08 01:29:37;;;;;;;8.38;1.85;;;9.10;99.90;;;;;;5001555;28;20392;-63
2023/01/08 01:32:03;;;;;;;7.65;2.20;;;9.00;99.90;;;;;;4983336;28;20064;-65
2023/01/08 01:34:29;;;;;;;6.45;1.90;;;8.90;99.90;;;;;;4986657;28;20088;-64
2023/01/08 01:36:54;;;;;;;9.52;1.77;;;8.80;99.90;;;;;;5000376;28;20060;-63
2023/01/08 01:39:20;;;;;;;8.45;1.90;;;8.80;99.90;;;;;;4985112;28;20485;-64
2023/01/08 01:41:46;;;;;;;10.25;1.80;;;8.80;99.90;;;;;;4997317;28;20390;-64
2023/01/08 01:44:36;;;;;;;8.98;1.95;;;8.70;99.90;;;;;;4984025;28;20045;-64
2023/01/08 01:47:09;;;;;;;12.48;2.15;;;8.70;99.90;;;;;;4983258;28;20046;-64
2023/01/08 01:49:35;;;;;;;15.75;2.17;;;8.60;99.90;;;;;;4983847;28;20038;-63
2023/01/08 01:52:04;;;;;;;16.58;2.08;;;8.60;99.90;;;;;;4980796;28;20050;-64
2023/01/08 01:54:31;;;;;;;15.85;2.40;;;8.50;99.90;;;;;;4983502;28;20100;-66
2023/01/08 01:56:58;;;;;;;14.25;2.17;;;8.50;99.90;;;;;;5004630;28;20038;-65
2023/01/08 01:59:24;;;;;;;18.08;2.80;;;8.50;99.90;;;;;;5000788;28;20045;-65
2023/01/08 02:01:50;;;;;;;18.92;2.40;;;8.40;99.90;;;;;;4982933;28;20430;-63
2023/01/08 02:04:16;;;;;;;17.45;2.47;;;8.40;99.90;;;;;;4980864;28;20739;-64
2023/01/08 02:06:46;;;;;;;10.30;1.90;;;8.40;99.90;;;;;;4968460;28;20065;-65
2023/01/08 02:09:22;;;;;;;14.52;2.10;;;8.40;99.90;;;;;;4999623;28;20050;-65
2023/01/08 02:12:15;;;;;;;12.85;2.10;;;8.40;99.90;;;;;;5000538;28;20042;-65
2023/01/08 02:15:22;;;;;;;11.93;2.03;;;8.40;99.90;;;;;;5000164;28;20573;-65
2023/01/08 02:17:53;;;;;;;15.60;2.38;;;8.40;99.90;;;;;;4985480;28;20054;-65
2023/01/08 02:20:36;;;;;;;19.65;2.83;;;8.40;99.90;;;;;;4986854;28;20046;-64
2023/01/08 02:23:20;;;;;;;16.73;2.50;;;8.40;99.90;;;;;;5002025;28;20492;-65
2023/01/08 02:26:12;;;;;;;13.55;2.30;;;8.30;99.90;;;;;;4984405;28;20081;-65
2023/01/08 02:29:06;;;;;;;15.35;2.25;;;8.40;99.90;;;;;;5000591;28;20037;-65
2023/01/08 02:31:34;;;;;;;9.18;2.20;;;8.30;99.90;;;;;;4979239;28;20045;-64
2023/01/08 02:34:00;;;;;;;14.10;2.28;;;8.30;99.90;;;;;;4983715;28;20077;-65
2023/01/08 02:36:34;;;;;;;15.95;2.47;;;8.40;99.90;;;;;;4986447;28;20053;-66
2023/01/08 02:39:19;;;;;;;15.23;2.53;;;8.30;99.90;;;;;;4983933;28;20050;-65
2023/01/08 02:41:59;;;;;;;14.43;2.63;;;8.20;99.90;;;;;;4983565;28;20051;-65
2023/01/08 02:44:55;;;;;;;12.93;2.40;;;8.20;99.90;;;;;;4984651;28;20077;-66
2023/01/08 02:47:27;;;;;;;12.60;2.38;;;8.20;99.90;;;;;;4981023;28;20411;-66
2023/01/08 02:50:02;;;;;;;15.10;1.95;;;8.20;99.90;;;;;;4984038;28;20073;-66
2023/01/08 02:52:33;;;;;;;14.63;2.28;;;8.20;99.90;;;;;;4996269;28;20600;-67
2023/01/08 02:55:01;;;;;;;10.50;2.15;;;8.10;99.90;;;;;;5003600;28;20155;-67
2023/01/08 02:57:28;;;;;;;11.02;2.65;;;8.10;99.90;;;;;;4982725;28;20042;-66
2023/01/08 02:59:55;;;;;;;8.88;2.70;;;8.10;99.90;;;;;;5000991;28;20112;-67
2023/01/08 03:02:21;;;;;;;15.90;3.17;;;8.10;99.90;;;;;;4997679;28;20046;-66
2023/01/08 03:04:53;;;;;;;13.75;3.58;;;8.10;99.90;;;;;;5000830;28;20038;-66
2023/01/08 03:07:20;;;;;;;11.65;3.28;;;8.00;99.90;;;;;;4983351;28;20407;-66
2023/01/08 03:09:46;;;;;;;18.45;3.70;;;8.00;99.90;;;;;;5002858;28;20054;-66
2023/01/08 03:12:24;;;;;;;12.02;3.90;;;7.90;99.90;;;;;;4981021;28;20048;-66
2023/01/08 03:15:06;;;;;;;14.00;3.83;;;8.00;99.90;;;;;;4984349;28;20069;-66
2023/01/08 03:17:34;;;;;;;10.45;3.88;;;8.00;99.90;;;;;;4984117;28;20050;-66
2023/01/08 03:20:07;;;;;;;12.93;4.25;;;7.90;99.90;;;;;;4986358;28;20045;-66
2023/01/08 03:22:38;;;;;;;12.68;4.38;;;8.00;99.90;;;;;;5003272;28;20053;-66
2023/01/08 03:25:05;;;;;;;11.10;4.85;;;8.00;99.90;;;;;;5001806;28;20124;-66
2023/01/08 03:27:36;;;;;;;10.68;4.80;;;8.10;99.90;;;;;;4985762;28;20044;-67
2023/01/08 03:30:03;;;;;;;12.88;5.10;;;8.10;99.90;;;;;;4984216;28;20049;-66
2023/01/08 03:32:30;;;;;;;10.50;5.63;;;8.20;99.90;;;;;;5002085;28;20037;-65
2023/01/08 03:34:58;;;;;;;15.40;5.65;;;8.10;99.90;;;;;;4986573;28;20084;-66
2023/01/08 03:37:29;;;;;;;14.13;5.57;;;8.20;99.90;;;;;;5004740;28;20088;-66
2023/01/08 03:39:58;;;;;;;13.13;5.45;;;8.20;99.90;;;;;;4985880;28;20073;-66
2023/01/08 03:42:25;;;;;;;12.57;5.85;;;8.20;99.90;;;;;;4986658;28;20045;-66
2023/01/08 03:44:51;;;;;;;13.70;6.65;;;8.30;99.90;;;;;;4986475;28;20049;-66
2023/01/08 03:47:19;;;;;;;13.70;6.10;;;8.30;99.90;;;;;;4987009;28;20487;-66
2023/01/08 03:49:46;;;;;;;12.40;5.78;;;8.30;99.90;;;;;;4996233;28;20109;-66
2023/01/08 03:52:24;;;;;;;12.70;5.72;;;8.40;99.90;;;;;;5003540;28;20057;-66
2023/01/08 03:54:49;;;;;;;13.68;6.00;;;8.40;99.90;;;;;;5004088;28;20042;-66
2023/01/08 03:57:15;;;;;;;10.50;6.00;;;8.40;99.90;;;;;;4983903;28;20037;-66
2023/01/08 03:59:40;;;;;;;14.35;6.00;;;8.50;99.90;;;;;;4988401;28;20042;-66
2023/01/08 04:02:06;;;;;;;15.23;5.72;;;8.50;99.90;;;;;;4989902;28;20161;-65
2023/01/08 04:04:32;;;;;;;16.02;5.72;;;8.40;99.90;;;;;;5001869;28;20494;-66
2023/01/08 04:06:57;;;;;;;14.30;6.43;;;8.50;99.90;;;;;;4987494;28;20399;-66
2023/01/08 04:09:23;;;;;;;14.32;5.97;;;8.50;99.90;;;;;;4989239;28;20034;-66
2023/01/08 04:11:48;;;;;;;12.60;5.50;;;8.50;99.90;;;;;;4985110;28;20061;-65
2023/01/08 04:14:14;;;;;;;10.60;5.47;;;8.50;99.90;;;;;;5005134;28;20058;-65
2023/01/08 04:16:39;;;;;;;12.20;5.25;;;8.50;99.90;;;;;;4984084;28;20045;-65
2023/01/08 04:19:05;;;;;;;12.02;5.10;;;8.50;99.90;;;;;;5006536;28;20037;-65
2023/01/08 04:21:30;;;;;;;10.77;4.97;;;8.50;99.90;;;;;;4985402;28;20072;-64
2023/01/08 04:23:56;;;;;;;13.02;4.38;;;8.60;99.90;;;;;;4986409;28;20050;-66
2023/01/08 04:26:22;;;;;;;12.82;4.60;;;8.60;99.90;;;;;;4981645;28;20045;-65
2023/01/08 04:28:47;;;;;;;11.82;4.43;;;8.60;99.90;;;;;;4986798;28;20488;-65
2023/01/08 04:31:13;;;;;;;8.07;4.28;;;8.60;99.90;;;;;;4987869;28;20362;-65
2023/01/08 04:33:38;;;;;;;8.88;4.13;;;8.50;99.90;;;;;;4991017;28;20080;-66
2023/01/08 04:36:04;;;;;;;11.85;4.80;;;8.60;99.90;;;;;;4970238;28;20030;-66
2023/01/08 04:38:30;;;;;;;8.25;4.35;;;8.50;99.90;;;;;;5004280;28;20446;-65
2023/01/08 04:41:00;;;;;;;10.25;4.53;;;8.50;99.90;;;;;;4987254;28;20476;-65
2023/01/08 04:43:26;;;;;;;9.95;4.10;;;8.60;99.90;;;;;;4985806;28;20042;-64
2023/01/08 04:45:56;;;;;;;9.70;3.70;;;8.60;99.90;;;;;;5001338;28;20050;-64
2023/01/08 04:48:21;;;;;;;9.95;3.97;;;8.50;99.90;;;;;;5002127;28;20049;-65
2023/01/08 04:50:47;;;;;;;7.88;4.05;;;8.50;99.90;;;;;;4984948;28;20037;-65
2023/01/08 04:53:13;;;;;;;10.27;4.10;;;8.50;99.90;;;;;;5003162;28;20034;-64
2023/01/08 04:55:38;;;;;;;8.57;3.90;;;8.50;99.90;;;;;;4986725;28;20038;-64
2023/01/08 04:58:04;;;;;;;9.18;4.20;;;8.60;99.90;;;;;;5001524;28;20030;-66
2023/01/08 05:00:29;;;;;;;11.15;4.10;;;8.50;99.90;;;;;;4984647;28;20566;-65
2023/01/08 05:02:55;;;;;;;8.82;4.03;;;8.50;99.90;;;;;;4983156;28;20042;-64
2023/01/08 05:05:21;;;;;;;10.32;4.20;;;8.50;99.90;;;;;;5005582;28;20445;-66
2023/01/08 05:07:46;;;;;;;9.18;4.50;;;8.40;99.90;;;;;;4987139;28;20060;-65
2023/01/08 05:10:12;;;;;;;12.23;4.55;;;8.40;99.90;;;;;;4988018;28;20049;-65
2023/01/08 05:12:37;;;;;;;9.82;4.65;;;8.40;99.90;;;;;;4998771;28;20046;-65
2023/01/08 05:15:03;;;;;;;11.90;4.65;;;8.40;99.90;;;;;;5002133;28;20438;-65
2023/01/08 05:17:29;;;;;;;10.23;4.90;;;8.40;99.90;;;;;;4984137;28;20096;-66
2023/01/08 05:19:54;;;;;;;11.32;4.82;;;8.40;99.90;;;;;;4986241;28;20489;-66
2023/01/08 05:22:20;;;;;;;12.02;5.35;;;8.40;99.90;;;;;;4985527;28;20381;-65
2023/01/08 05:24:45;;;;;;;10.65;4.75;;;8.40;99.90;;;;;;4998511;28;21548;-66
2023/01/08 05:27:11;;;;;;;9.45;5.10;;;8.40;99.90;;;;;;4984505;28;20045;-66
2023/01/08 05:29:36;;;;;;;10.70;4.95;;;8.40;99.90;;;;;;4986761;28;20092;-66
2023/01/08 05:32:02;;;;;;;12.18;5.15;;;8.30;99.90;;;;;;4984363;28;20073;-66
2023/01/08 05:34:28;;;;;;;12.07;5.25;;;8.40;99.90;;;;;;5003410;28;20041;-66
2023/01/08 05:36:53;;;;;;;10.40;5.10;;;8.40;99.90;;;;;;4984164;28;20081;-66
2023/01/08 05:39:19;;;;;;;11.82;5.40;;;8.30;99.90;;;;;;4982979;28;20072;-64
2023/01/08 05:41:44;;;;;;;13.52;4.85;;;8.30;99.90;;;;;;4984718;28;20038;-65
2023/01/08 05:44:10;;;;;;;9.45;5.03;;;8.20;99.90;;;;;;5001724;28;20045;-66
2023/01/08 05:46:35;;;;;;;11.85;5.13;;;8.30;99.90;;;;;;4998807;28;20037;-66
2023/01/08 05:49:01;;;;;;;11.93;4.95;;;8.30;99.90;;;;;;5001446;28;20077;-64
2023/01/08 05:51:26;;;;;;;11.98;5.00;;;8.20;99.90;;;;;;4984331;28;20096;-66
2023/01/08 05:53:52;;;;;;;10.00;4.75;;;8.20;99.90;;;;;;5000488;28;20038;-66
2023/01/08 05:56:18;;;;;;;9.63;4.90;;;8.20;99.90;;;;;;4986788;28;20039;-64
2023/01/08 05:58:43;;;;;;;11.55;5.10;;;8.20;99.90;;;;;;4983172;28;20050;-65
2023/01/08 06:01:12;;;;;;;11.88;4.63;;;8.20;99.90;;;;;;4985035;28;20042;-65
2023/01/08 06:03:38;;;;;;;14.25;4.75;;;8.10;99.90;;;;;;4996664;28;20053;-65
2023/01/08 06:06:05;;;;;;;12.65;4.90;;;8.10;99.90;;;;;;5002199;28;20048;-65
2023/01/08 06:08:31;;;;;;;14.10;4.63;;;8.10;99.90;;;;;;4995735;28;20092;-65
2023/01/08 06:11:02;;;;;;;15.30;4.40;;;8.10;99.90;;;;;;4986769;28;20050;-65
2023/01/08 06:13:29;;;;;;;10.45;4.05;;;8.10;99.90;;;;;;4985517;28;20488;-65
2023/01/08 06:15:56;;;;;;;14.00;3.80;;;8.10;99.90;;;;;;4986117;28;20036;-66
2023/01/08 06:18:22;;;;;;;11.02;4.18;;;8.10;99.90;;;;;;4982068;28;20504;-65
2023/01/08 06:20:47;;;;;;;12.00;4.00;;;8.10;99.90;;;;;;5002290;28;20084;-66
2023/01/08 06:23:13;;;;;;;10.45;4.03;;;8.10;99.90;;;;;;4978128;28;20045;-64
2023/01/08 06:25:38;;;;;;;13.15;3.63;;;8.00;99.90;;;;;;4985332;28;20092;-65
2023/01/08 06:28:04;;;;;;;9.00;3.30;;;8.10;99.90;;;;;;4982409;28;20038;-64
2023/01/08 06:30:30;;;;;;;9.50;3.10;;;8.10;99.90;;;;;;4983163;28;20088;-64
2023/01/08 06:33:00;;;;;;;15.73;3.45;;;8.10;99.90;;;;;;4999836;28;20328;-64
2023/01/08 06:35:26;;;;;;;10.73;3.00;;;8.10;99.90;;;;;;4984886;28;20046;-64
2023/01/08 06:37:54;;;;;;;9.82;2.83;;;8.00;99.90;;;;;;4994707;28;20041;-65
2023/01/08 06:40:19;;;;;;;12.25;3.17;;;8.10;99.90;;;;;;4986433;28;20065;-66
2023/01/08 06:42:45;;;;;;;9.75;2.75;;;8.00;99.90;;;;;;4982379;28;20139;-66
2023/01/08 06:45:11;;;;;;;13.98;3.08;;;8.00;99.90;;;;;;5001655;28;20057;-66
2023/01/08 06:47:37;;;;;;;11.43;2.80;;;8.00;99.90;;;;;;4982884;28;20057;-65
2023/01/08 06:50:03;;;;;;;10.50;2.90;;;7.90;99.90;;;;;;4983437;28;20034;-66
2023/01/08 06:52:29;;;;;;;9.23;2.50;;;8.00;99.90;;;;;;4984039;28;20083;-65
2023/01/08 06:54:54;;;;;;;13.82;2.78;;;7.90;99.90;;;;;;4992498;28;20042;-66
2023/01/08 06:57:20;;;;;;;9.65;2.78;;;7.80;99.90;;;;;;4991059;28;20120;-65
2023/01/08 06:59:45;;;;;;;11.02;2.80;;;7.80;99.90;;;;;;4989728;28;20500;-65
2023/01/08 07:02:16;;;;;;;10.65;2.40;;;7.70;99.90;;;;;;5008534;28;20051;-66
2023/01/08 07:04:42;;;;;;;12.35;2.75;;;7.70;99.90;;;;;;4985752;28;20518;-65
2023/01/08 07:07:12;;;;;;;14.05;2.80;;;7.70;99.90;;;;;;4987646;28;20034;-65
2023/01/08 07:09:37;;;;;;;13.63;2.58;;;7.70;99.90;;;;;;4992328;28;20137;-66
2023/01/08 07:12:03;;;;;;;7.93;3.00;;;7.70;99.90;;;;;;4985360;28;20120;-66
2023/01/08 07:14:28;;;;;;;12.55;3.10;;;7.80;99.90;;;;;;4988408;28;20045;-66
2023/01/08 07:16:54;;;;;;;11.07;2.38;;;7.80;99.90;;;;;;4989171;28;20037;-66
2023/01/08 07:19:19;;;;;;;11.85;3.00;;;7.70;99.90;;;;;;5007317;28;20125;-66
2023/01/08 07:21:45;;;;;;;12.82;2.80;;;7.80;99.90;;;;;;5006069;28;20394;-66
2023/01/08 07:24:11;;;;;;;7.63;2.60;;;7.70;99.90;;;;;;5004155;28;20038;-65
2023/01/08 07:26:38;;;;;;;10.90;3.42;;;7.60;99.90;;;;;;5007008;28;20175;-65
2023/01/08 07:29:04;;;;;;;13.35;3.20;;;7.50;99.90;;;;;;4983784;28;20080;-65
2023/01/08 07:31:29;;;;;;;9.93;3.13;;;7.50;99.90;;;;;;4989538;28;20061;-66
2023/01/08 07:33:55;;;;;;;9.98;3.03;;;7.40;99.90;;;;;;4983288;28;20050;-65
2023/01/08 07:36:21;;;;;;;14.82;3.22;;;7.30;99.90;;;;;;4987641;28;20479;-65
2023/01/08 07:38:50;;;;;;;12.25;3.35;;;7.30;99.90;;;;;;5001624;28;20092;-66
2023/01/08 07:41:16;;;;;;;11.65;3.05;;;7.30;99.90;;;;;;4991106;28;20042;-65
2023/01/08 07:43:42;;;;;;;18.23;3.45;;;7.20;99.90;;;;;;5008471;28;20052;-65
2023/01/08 07:46:08;;;;;;;10.75;3.38;;;7.10;99.90;;;;;;4988160;28;20050;-64
2023/01/08 07:48:34;;;;;;;10.52;3.30;;;7.10;99.90;;;;;;5006323;28;20042;-65
2023/01/08 07:51:05;;;;;;;8.80;2.60;;;7.20;99.90;;;;;;5006673;28;20053;-65
2023/01/08 07:53:30;;;;;;;11.75;2.78;;;7.10;99.90;;;;;;4992979;28;20160;-64
2023/01/08 07:56:00;;;;;;;10.45;3.28;;;7.00;99.90;;;;;;4992530;28;20120;-65
2023/01/08 07:58:26;;;;;;;14.93;3.13;;;7.00;99.90;;;;;;5010444;28;20455;-66
2023/01/08 08:00:52;;;;;;;13.73;3.22;;;7.00;99.90;;;;;;5003889;28;20043;-64
2023/01/08 08:03:17;;;;;;;12.10;2.83;;;7.00;99.90;;;;;;5002577;28;20452;-65
2023/01/08 08:05:43;;;;;;;8.10;2.72;;;6.90;99.90;;;;;;5004744;28;20169;-65
2023/01/08 08:08:10;;;;;;;8.88;2.75;;;7.00;99.90;;;;;;4989000;28;20041;-65
2023/01/08 08:10:37;;;;;;;12.18;2.90;;;6.90;99.90;;;;;;4999806;28;20404;-65
2023/01/08 08:13:02;;;;;;;14.02;3.00;;;6.90;99.90;;;;;;5000090;28;20180;-64
2023/01/08 08:15:28;;;;;;;11.45;3.00;;;6.90;99.90;;;;;;4987984;28;20683;-64
2023/01/08 08:17:54;;;;;;;17.45;2.83;;;6.90;99.90;;;;;;4988250;28;20266;-64
2023/01/08 08:20:19;;;;;;;8.27;2.65;;;6.80;99.90;;;;;;4983098;28;20052;-64
2023/01/08 08:22:45;;;;;;;13.38;2.65;;;6.80;99.90;;;;;;5003049;28;20045;-64
2023/01/08 08:25:11;;;;;;;13.77;2.97;;;6.90;99.90;;;;;;5006416;28;20169;-65
2023/01/08 08:27:36;;;;;;;11.30;2.83;;;6.80;99.90;;;;;;5004598;28;20034;-63
2023/01/08 08:30:03;;;;;;;11.38;2.47;;;6.90;99.90;;;;;;5005717;28;20048;-64
2023/01/08 08:32:29;;;;;;;9.52;2.58;;;6.80;99.90;;;;;;4982927;28;20034;-64
2023/01/08 08:34:54;;;;;;;10.02;2.97;;;6.90;99.90;;;;;;4982673;28;20534;-64
2023/01/08 08:37:20;;;;;;;14.13;2.90;;;6.90;99.90;;;;;;5000647;28;20025;-65
2023/01/08 08:39:45;;;;;;;10.85;3.13;;;6.80;99.90;;;;;;5001805;28;20046;-64
2023/01/08 08:42:11;;;;;;;12.27;2.60;;;6.80;99.90;;;;;;4999916;28;20053;-64
2023/01/08 08:44:36;;;;;;;14.68;2.58;;;6.90;99.90;;;;;;5001660;28;20037;-64
2023/01/08 08:47:06;;;;;;;11.57;2.60;;;6.90;99.90;;;;;;4983107;28;20427;-64
2023/01/08 08:49:35;;;;;;;8.10;2.35;;;6.90;99.90;;;;;;5000650;28;20038;-64
2023/01/08 08:52:01;;;;;;;12.73;2.83;;;6.80;99.90;;;;;;4982017;28;20034;-64
2023/01/08 08:54:26;;;;;;;10.88;2.38;;;6.90;99.90;;;;;;4981736;28;20041;-65
2023/01/08 08:56:52;;;;;;;12.70;2.58;;;6.90;99.90;;;;;;5002472;28;20496;-64
2023/01/08 08:59:17;;;;;;;11.50;2.75;;;6.90;99.90;;;;;;4985757;28;20192;-65
2023/01/08 09:01:43;;;;;;;7.90;2.47;;;6.90;99.90;;;;;;5002639;28;20050;-64
2023/01/08 09:04:08;;;;;;;10.93;2.83;;;7.00;99.90;;;;;;4982252;28;20034;-63
2023/01/08 09:06:34;;;;;;;10.82;2.67;;;7.00;99.90;;;;;;4998493;28;20510;-63
2023/01/08 09:09:00;;;;;;;11.15;3.05;;;7.00;99.90;;;;;;4986409;28;20034;-63
2023/01/08 09:11:25;;;;;;;10.98;2.95;;;7.00;99.90;;;;;;4987764;28;20469;-63
2023/01/08 09:13:51;;;;;;;11.07;2.67;;;7.00;99.90;;;;;;5002619;28;20121;-64
2023/01/08 09:16:16;;;;;;;12.32;2.53;;;7.10;99.90;;;;;;4989507;28;20049;-63
2023/01/08 09:18:43;;;;;;;8.25;2.35;;;7.10;99.90;;;;;;4985776;28;20233;-64
2023/01/08 09:21:09;;;;;;;11.00;2.47;;;7.10;99.90;;;;;;5005794;28;20053;-64
2023/01/08 09:23:35;;;;;;;9.70;2.25;;;7.20;99.90;;;;;;5003747;28;20480;-64
2023/01/08 09:26:02;;;;;;;9.73;2.55;;;7.20;99.90;;;;;;5005305;28;20400;-63
2023/01/08 09:28:28;;;;;;;10.82;2.35;;;7.30;99.90;;;;;;5006878;28;20057;-64
2023/01/08 09:30:53;;;;;;;11.48;2.17;;;7.30;99.90;;;;;;5006243;28;20385;-63
2023/01/08 09:33:19;;;;;;;10.05;2.30;;;7.30;99.90;;;;;;5006349;28;20048;-64
2023/01/08 09:35:45;;;;;;;15.80;2.40;;;7.40;99.90;;;;;;4990813;28;20046;-63
2023/01/08 09:38:10;;;;;;;10.85;2.80;;;7.40;99.90;;;;;;5008209;28;20034;-64
2023/01/08 09:40:45;;;;;;;10.13;2.20;;;7.40;99.90;;;;;;4989314;28;20041;-64
2023/01/08 09:43:18;;;;;;;17.80;2.40;;;7.40;99.90;;;;;;4988750;28;20076;-66
2023/01/08 09:45:48;;;;;;;14.48;2.22;;;7.50;99.90;;;;;;4988657;28;20413;-64
2023/01/08 09:48:17;;;;;;;20.33;2.47;;;7.40;99.90;;;;;;4985667;28;20121;-65
2023/01/08 09:50:43;;;;;;;14.93;2.22;;;7.50;99.90;;;;;;4988538;28;20120;-64
2023/01/08 09:53:14;;;;;;;16.17;2.58;;;7.50;99.90;;;;;;5005275;28;20786;-64
2023/01/08 09:55:40;;;;;;;14.18;2.40;;;7.50;99.90;;;;;;5007219;28;20373;-64
2023/01/08 09:58:34;;;;;;;13.43;2.13;;;7.60;99.90;;;;;;5006440;28;20033;-64
2023/01/08 10:01:01;;;;;;;12.15;2.13;;;7.70;99.90;;;;;;4988593;28;20396;-65
2023/01/08 10:04:02;;;;;;;11.82;2.45;;;7.60;99.90;;;;;;4988350;28;20034;-64
2023/01/08 10:06:27;;;;;;;17.23;2.40;;;7.70;99.90;;;;;;4986185;28;20050;-63
2023/01/08 10:08:53;;;;;;;14.13;2.35;;;7.70;99.90;;;;;;5006806;28;20053;-64
2023/01/08 10:11:20;;;;;;;14.88;2.42;;;7.70;99.90;;;;;;4988440;28;20034;-65
2023/01/08 10:13:52;;;;;;;16.67;2.40;;;7.70;99.90;;;;;;4970845;28;20044;-65
2023/01/08 10:16:27;;;;;;;;;;;7.80;99.90;;;;;;4988535;28;20042;-63
2023/01/08 10:18:53;;;;;;;14.65;2.22;;;7.80;99.90;;;;;;4988666;28;20338;-64
2023/01/08 10:21:20;;;;;;;12.80;2.20;;;7.80;99.90;;;;;;5004419;28;20112;-63
2023/01/08 10:23:51;;;;;;;17.92;2.75;;;7.80;99.90;;;;;;4988954;28;20045;-65
2023/01/08 10:26:32;;;;;;;20.42;3.20;;;7.90;99.90;;;;;;4990256;28;20038;-65
2023/01/08 10:29:18;;;;;;;19.38;2.97;;;8.00;99.90;;;;;;4989850;28;20050;-64
2023/01/08 10:31:57;;;;;;;22.13;2.40;;;8.00;99.90;;;;;;5003498;28;20042;-64
2023/01/08 10:34:31;;;;;;;19.27;3.15;;;8.00;99.90;;;;;;4987157;28;20052;-64
2023/01/08 10:36:57;;;;;;;11.27;2.40;;;8.00;99.90;;;;;;5005325;28;20042;-65
2023/01/08 10:39:26;;;;;;;20.05;2.90;;;8.00;99.90;;;;;;5005982;28;20637;-64
2023/01/08 10:41:56;;;;;;;16.73;2.83;;;8.10;99.90;;;;;;4989368;28;20504;-64
2023/01/08 10:44:23;;;;;;;14.13;2.50;;;8.10;99.90;;;;;;4989084;28;20107;-64
2023/01/08 10:46:53;;;;;;;17.33;2.50;;;8.10;99.90;;;;;;4987382;28;20517;-64
2023/01/08 10:49:45;;;;;;;14.35;2.22;;;8.10;99.90;;;;;;5005557;28;20050;-65
2023/01/08 10:52:28;;;;;;;13.27;2.55;;;8.20;99.90;;;;;;5002748;28;20041;-63
2023/01/08 10:54:54;;;;;;;13.68;2.17;;;8.20;99.90;;;;;;4987241;28;21239;-64
2023/01/08 10:57:26;;;;;;;17.90;3.03;;;8.20;99.90;;;;;;5003086;28;20492;-64
2023/01/08 10:59:52;;;;;;;14.20;2.15;;;8.30;99.90;;;;;;5004710;28;20053;-64
2023/01/08 11:02:27;;;;;;;14.23;2.78;;;8.30;99.90;;;;;;4987529;28;20046;-63
2023/01/08 11:04:53;;;;;;;18.15;2.65;;;8.30;99.90;;;;;;4986558;28;20041;-63
2023/01/08 11:07:22;;;;;;;14.77;2.35;;;8.30;99.90;;;;;;4985185;28;20089;-64
2023/01/08 11:09:50;;;;;;;18.23;2.65;;;8.40;99.90;;;;;;5003685;28;20403;-64
2023/01/08 11:12:32;;;;;;;20.67;2.63;;;8.40;99.90;;;;;;4984195;28;20117;-64
2023/01/08 11:14:59;;;;;;;18.67;2.92;;;8.40;99.90;;;;;;4990113;28;20468;-64
2023/01/08 11:17:25;;;;;;;14.88;2.38;;;8.50;99.90;;;;;;4987227;28;20508;-64
2023/01/08 11:19:52;;;;;;;16.15;2.67;;;8.60;99.90;;;;;;5004213;28;20034;-64
2023/01/08 11:22:23;;;;;;;15.60;3.10;;;8.60;99.90;;;;;;5000670;28;20041;-64
2023/01/08 11:24:50;;;;;;;18.52;3.10;;;8.60;99.90;;;;;;4983291;28;20497;-64
2023/01/08 11:27:34;;;;;;;23.08;4.10;;;8.70;99.90;;;;;;4986047;28;20622;-65
2023/01/08 11:30:10;;;;;;;18.67;3.50;;;8.80;99.90;;;;;;4989093;28;20477;-64
2023/01/08 11:32:54;;;;;;;23.20;3.25;;;8.80;99.90;;;;;;4985110;28;20062;-63
2023/01/08 11:35:25;;;;;;;17.80;3.30;;;8.90;99.90;;;;;;4989431;28;20041;-64
2023/01/08 11:37:53;;;;;;;16.40;3.90;;;9.00;99.90;;;;;;4985299;28;20038;-63
2023/01/08 11:40:35;;;;;;;19.17;3.78;;;9.10;99.90;;;;;;4991354;28;20073;-64
2023/01/08 11:43:19;;;;;;;20.65;4.57;;;9.00;99.90;;;;;;5006674;28;20141;-64
2023/01/08 11:45:54;;;;;;;15.50;3.08;;;9.00;99.90;;;;;;5005312;28;20048;-65
2023/01/08 11:48:33;;;;;;;15.82;3.42;;;9.00;99.90;;;;;;5007957;28;20434;-64
2023/01/08 11:51:30;;;;;;;22.35;3.47;;;9.10;99.90;;;;;;4988184;28;20042;-65
2023/01/08 11:54:25;;;;;;;12.95;3.33;;;9.10;99.90;;;;;;4985052;28;20041;-65
2023/01/08 11:57:10;;;;;;;16.70;3.83;;;9.10;99.90;;;;;;4991128;28;20057;-64
2023/01/08 12:00:07;;;;;;;15.65;3.38;;;9.10;99.90;;;;;;5009317;28;20042;-65
2023/01/08 12:02:46;;;;;;;24.80;3.53;;;9.20;99.90;;;;;;4986783;28;20292;-64
2023/01/08 12:05:23;;;;;;;17.25;3.28;;;9.30;99.90;;;;;;4990416;28;20129;-64
2023/01/08 12:07:58;;;;;;;20.90;4.15;;;9.20;99.90;;;;;;4990101;28;20408;-63
2023/01/08 12:10:50;;;;;;;14.02;3.67;;;9.20;99.90;;;;;;5013469;28;20034;-65
2023/01/08 12:13:53;;;;;;;20.58;3.50;;;9.20;99.90;;;;;;4983117;28;20050;-63
2023/01/08 12:16:52;;;;;;;19.30;3.38;;;9.10;99.90;;;;;;5012242;28;20038;-65
2023/01/08 12:20:05;;;;;;;14.65;3.30;;;9.10;99.90;;;;;;4991289;28;20148;-66
2023/01/08 12:22:35;;;;;;;17.38;4.00;;;9.00;99.90;;;;;;4979117;28;20050;-66
2023/01/08 12:25:35;;;;;;;18.60;3.25;;;9.00;99.90;;;;;;4987891;28;20700;-64
2023/01/08 12:28:29;;;;;;;16.90;3.58;;;9.10;99.90;;;;;;4986363;28;20109;-64
2023/01/08 12:31:16;;;;;;;17.77;4.00;;;9.20;99.90;;;;;;4973851;28;20064;-64
2023/01/08 12:33:55;;;;;;;19.95;3.75;;;9.20;99.90;;;;;;4988580;28;20069;-65
2023/01/08 12:36:36;;;;;;;14.70;3.85;;;9.20;99.90;;;;;;4983470;28;20077;-65
2023/01/08 12:39:23;;;;;;;20.33;3.53;;;9.20;99.90;;;;;;4986540;28;20124;-63
2023/01/08 12:41:51;;;;;;;13.00;3.40;;;9.30;99.90;;;;;;4990623;28;20091;-65
2023/01/08 12:44:23;;;;;;;17.38;3.50;;;9.30;99.90;;;;;;4987601;28;20045;-65
2023/01/08 12:46:52;;;;;;;13.60;3.47;;;9.30;99.90;;;;;;4992033;28;20056;-66
2023/01/08 12:49:28;;;;;;;19.77;3.83;;;9.30;99.90;;;;;;4991447;28;20103;-65
2023/01/08 12:52:25;;;;;;;17.83;3.40;;;9.30;99.90;;;;;;5012698;28;20049;-65
2023/01/08 12:55:02;;;;;;;21.27;3.33;;;9.30;99.90;;;;;;4992455;28;20034;-66
2023/01/08 12:57:36;;;;;;;13.07;3.08;;;9.30;99.90;;;;;;5005772;28;20046;-66
2023/01/08 13:00:35;;;;;;;14.15;3.25;;;9.30;99.90;;;;;;5012482;28;20555;-65
2023/01/08 13:03:04;;;;;;;12.48;3.30;;;9.40;99.90;;;;;;4986171;28;20049;-65